sensor_id;sensor_type;location;lat;lon;timestamp;P1;durP1;ratioP1;P2;durP2;ratioP2
79212;SDS011;68639;52.380;9.822;2023-06-19T00:00:26;6.10;;;4.40;;
79212;SDS011;68639;52.380;9.822;2023-06-19T00:02:52;10.07;;;5.00;;
79212;SDS011;68639;52.380;9.822;2023-06-19T00:05:17;8.43;;;4.78;;
79212;SDS011;68639;52.380;9.822;2023-06-19T00:07:42;6.70;;;4.80;;
79212;SDS011;68639;52.380;9.822;2023-06-19T00:10:08;9.00;;;4.78;;
79212;SDS011;68639;52.380;9.822;2023-06-19T00:12:33;9.40;;;4.55;;
79212;SDS011;68639;52.380;9.822;2023-06-19T00:14:58;6.60;;;4.65;;
79212;SDS011;68639;52.380;9.822;2023-06-19T00:17:23;7.85;;;4.90;;
79212;SDS011;68639;52.380;9.822;2023-06-19T00:19:51;7.13;;;5.05;;
79212;SDS011;68639;52.380;9.822;2023-06-19T00:22:16;5.80;;;4.63;;
79212;SDS011;68639;52.380;9.822;2023-06-19T00:24:41;8.60;;;5.00;;
79212;SDS011;68639;52.380;9.822;2023-06-19T00:27:06;7.27;;;4.80;;
79212;SDS011;68639;52.380;9.822;2023-06-19T00:29:32;8.43;;;5.05;;
79212;SDS011;68639;52.380;9.822;2023-06-19T00:31:58;6.63;;;4.47;;
79212;SDS011;68639;52.380;9.822;2023-06-19T00:34:23;8.07;;;5.18;;
79212;SDS011;68639;52.380;9.822;2023-06-19T00:36:49;6.82;;;4.82;;
79212;SDS011;68639;52.380;9.822;2023-06-19T00:39:14;10.57;;;5.25;;
79212;SDS011;68639;52.380;9.822;2023-06-19T00:41:39;6.70;;;5.00;;
79212;SDS011;68639;52.380;9.822;2023-06-19T00:44:05;7.63;;;4.72;;
79212;SDS011;68639;52.380;9.822;2023-06-19T00:46:30;7.03;;;4.60;;
79212;SDS011;68639;52.380;9.822;2023-06-19T00:48:56;8.45;;;4.57;;
79212;SDS011;68639;52.380;9.822;2023-06-19T00:51:21;8.55;;;4.70;;
79212;SDS011;68639;52.380;9.822;2023-06-19T00:53:46;8.18;;;4.80;;
79212;SDS011;68639;52.380;9.822;2023-06-19T00:56:12;9.82;;;5.15;;
79212;SDS011;68639;52.380;9.822;2023-06-19T00:58:37;9.93;;;5.10;;
79212;SDS011;68639;52.380;9.822;2023-06-19T01:01:03;8.75;;;4.70;;
79212;SDS011;68639;52.380;9.822;2023-06-19T01:03:28;7.93;;;4.75;;
79212;SDS011;68639;52.380;9.822;2023-06-19T01:05:54;6.97;;;4.90;;
79212;SDS011;68639;52.380;9.822;2023-06-19T01:10:57;6.50;;;4.88;;
79212;SDS011;68639;52.380;9.822;2023-06-19T01:13:28;8.02;;;5.00;;
79212;SDS011;68639;52.380;9.822;2023-06-19T01:15:55;8.02;;;4.60;;
79212;SDS011;68639;52.380;9.822;2023-06-19T01:18:21;10.10;;;5.05;;
79212;SDS011;68639;52.380;9.822;2023-06-19T01:20:47;6.63;;;4.57;;
79212;SDS011;68639;52.380;9.822;2023-06-19T01:23:12;7.88;;;4.95;;
79212;SDS011;68639;52.380;9.822;2023-06-19T01:25:37;7.90;;;4.78;;
79212;SDS011;68639;52.380;9.822;2023-06-19T01:28:03;6.80;;;4.85;;
79212;SDS011;68639;52.380;9.822;2023-06-19T01:30:30;7.97;;;4.80;;
79212;SDS011;68639;52.380;9.822;2023-06-19T01:35:21;8.07;;;5.17;;
79212;SDS011;68639;52.380;9.822;2023-06-19T01:37:48;6.63;;;4.95;;
79212;SDS011;68639;52.380;9.822;2023-06-19T01:40:14;8.73;;;4.82;;
79212;SDS011;68639;52.380;9.822;2023-06-19T01:42:40;6.97;;;4.63;;
79212;SDS011;68639;52.380;9.822;2023-06-19T01:45:06;6.50;;;4.57;;
79212;SDS011;68639;52.380;9.822;2023-06-19T01:47:31;7.90;;;5.15;;
79212;SDS011;68639;52.380;9.822;2023-06-19T01:49:57;8.32;;;4.85;;
79212;SDS011;68639;52.380;9.822;2023-06-19T01:52:23;9.63;;;4.72;;
79212;SDS011;68639;52.380;9.822;2023-06-19T01:54:48;8.07;;;4.70;;
79212;SDS011;68639;52.380;9.822;2023-06-19T01:57:13;6.55;;;4.63;;
79212;SDS011;68639;52.380;9.822;2023-06-19T01:59:39;9.27;;;4.80;;
79212;SDS011;68639;52.380;9.822;2023-06-19T02:02:04;9.18;;;4.72;;
79212;SDS011;68639;52.380;9.822;2023-06-19T02:04:31;8.05;;;4.63;;
79212;SDS011;68639;52.380;9.822;2023-06-19T02:06:56;6.95;;;4.38;;
79212;SDS011;68639;52.380;9.822;2023-06-19T02:09:22;11.32;;;4.97;;
79212;SDS011;68639;52.380;9.822;2023-06-19T02:11:47;8.30;;;4.63;;
79212;SDS011;68639;52.380;9.822;2023-06-19T02:14:12;8.65;;;5.20;;
79212;SDS011;68639;52.380;9.822;2023-06-19T02:16:37;6.75;;;4.47;;
79212;SDS011;68639;52.380;9.822;2023-06-19T02:19:02;13.38;;;5.25;;
79212;SDS011;68639;52.380;9.822;2023-06-19T02:21:28;6.93;;;4.80;;
79212;SDS011;68639;52.380;9.822;2023-06-19T02:23:53;7.75;;;4.32;;
79212;SDS011;68639;52.380;9.822;2023-06-19T02:26:18;6.82;;;4.60;;
79212;SDS011;68639;52.380;9.822;2023-06-19T02:28:44;8.27;;;4.85;;
79212;SDS011;68639;52.380;9.822;2023-06-19T02:31:09;8.25;;;4.70;;
79212;SDS011;68639;52.380;9.822;2023-06-19T02:33:34;9.27;;;5.00;;
79212;SDS011;68639;52.380;9.822;2023-06-19T02:35:59;7.20;;;4.40;;
79212;SDS011;68639;52.380;9.822;2023-06-19T02:38:25;9.05;;;4.75;;
79212;SDS011;68639;52.380;9.822;2023-06-19T02:40:50;11.27;;;4.82;;
79212;SDS011;68639;52.380;9.822;2023-06-19T02:43:15;7.65;;;4.50;;
79212;SDS011;68639;52.380;9.822;2023-06-19T02:45:40;7.35;;;4.65;;
79212;SDS011;68639;52.380;9.822;2023-06-19T02:48:06;9.20;;;4.95;;
79212;SDS011;68639;52.380;9.822;2023-06-19T02:50:31;6.45;;;4.30;;
79212;SDS011;68639;52.380;9.822;2023-06-19T02:52:56;12.98;;;5.22;;
79212;SDS011;68639;52.380;9.822;2023-06-19T02:55:21;8.98;;;4.60;;
79212;SDS011;68639;52.380;9.822;2023-06-19T02:57:46;6.35;;;4.97;;
79212;SDS011;68639;52.380;9.822;2023-06-19T03:00:12;10.75;;;4.85;;
79212;SDS011;68639;52.380;9.822;2023-06-19T03:02:38;8.52;;;4.82;;
79212;SDS011;68639;52.380;9.822;2023-06-19T03:05:06;7.03;;;4.80;;
79212;SDS011;68639;52.380;9.822;2023-06-19T03:07:32;6.97;;;4.80;;
79212;SDS011;68639;52.380;9.822;2023-06-19T03:09:57;7.97;;;5.30;;
79212;SDS011;68639;52.380;9.822;2023-06-19T03:12:22;7.82;;;5.05;;
79212;SDS011;68639;52.380;9.822;2023-06-19T03:14:47;9.83;;;4.67;;
79212;SDS011;68639;52.380;9.822;2023-06-19T03:17:12;6.82;;;4.97;;
79212;SDS011;68639;52.380;9.822;2023-06-19T03:19:38;8.77;;;4.72;;
79212;SDS011;68639;52.380;9.822;2023-06-19T03:22:03;7.03;;;5.05;;
79212;SDS011;68639;52.380;9.822;2023-06-19T03:24:28;8.95;;;4.82;;
79212;SDS011;68639;52.380;9.822;2023-06-19T03:26:53;11.65;;;5.18;;
79212;SDS011;68639;52.380;9.822;2023-06-19T03:29:19;7.63;;;4.90;;
79212;SDS011;68639;52.380;9.822;2023-06-19T03:31:44;8.40;;;4.90;;
79212;SDS011;68639;52.380;9.822;2023-06-19T03:34:09;11.17;;;4.97;;
79212;SDS011;68639;52.380;9.822;2023-06-19T03:36:34;6.45;;;4.68;;
79212;SDS011;68639;52.380;9.822;2023-06-19T03:38:59;7.20;;;4.90;;
79212;SDS011;68639;52.380;9.822;2023-06-19T03:41:24;8.60;;;4.85;;
79212;SDS011;68639;52.380;9.822;2023-06-19T03:43:50;10.93;;;5.05;;
79212;SDS011;68639;52.380;9.822;2023-06-19T03:46:15;6.53;;;4.47;;
79212;SDS011;68639;52.380;9.822;2023-06-19T03:48:40;11.70;;;4.70;;
79212;SDS011;68639;52.380;9.822;2023-06-19T03:51:05;7.03;;;4.70;;
79212;SDS011;68639;52.380;9.822;2023-06-19T03:53:30;8.25;;;4.60;;
79212;SDS011;68639;52.380;9.822;2023-06-19T03:55:56;9.38;;;5.30;;
79212;SDS011;68639;52.380;9.822;2023-06-19T03:58:21;7.20;;;4.82;;
79212;SDS011;68639;52.380;9.822;2023-06-19T04:00:46;7.70;;;4.53;;
79212;SDS011;68639;52.380;9.822;2023-06-19T04:03:11;6.93;;;4.60;;
79212;SDS011;68639;52.380;9.822;2023-06-19T04:05:36;6.13;;;4.35;;
79212;SDS011;68639;52.380;9.822;2023-06-19T04:08:02;7.95;;;4.05;;
79212;SDS011;68639;52.380;9.822;2023-06-19T04:10:27;6.80;;;4.70;;
79212;SDS011;68639;52.380;9.822;2023-06-19T04:12:52;6.75;;;4.70;;
79212;SDS011;68639;52.380;9.822;2023-06-19T04:15:20;10.90;;;4.75;;
79212;SDS011;68639;52.380;9.822;2023-06-19T04:17:45;6.25;;;4.43;;
79212;SDS011;68639;52.380;9.822;2023-06-19T04:20:10;11.57;;;5.05;;
79212;SDS011;68639;52.380;9.822;2023-06-19T04:22:39;6.07;;;4.80;;
79212;SDS011;68639;52.380;9.822;2023-06-19T04:25:06;6.75;;;4.68;;
79212;SDS011;68639;52.380;9.822;2023-06-19T04:27:31;8.93;;;4.57;;
79212;SDS011;68639;52.380;9.822;2023-06-19T04:29:56;6.43;;;4.60;;
79212;SDS011;68639;52.380;9.822;2023-06-19T04:32:21;10.63;;;4.70;;
79212;SDS011;68639;52.380;9.822;2023-06-19T04:34:46;5.80;;;4.63;;
79212;SDS011;68639;52.380;9.822;2023-06-19T04:37:12;7.35;;;4.20;;
79212;SDS011;68639;52.380;9.822;2023-06-19T04:39:37;7.63;;;5.03;;
79212;SDS011;68639;52.380;9.822;2023-06-19T04:42:02;10.93;;;4.80;;
79212;SDS011;68639;52.380;9.822;2023-06-19T04:44:28;7.03;;;4.03;;
79212;SDS011;68639;52.380;9.822;2023-06-19T04:46:55;6.13;;;4.63;;
79212;SDS011;68639;52.380;9.822;2023-06-19T04:49:25;8.77;;;4.68;;
79212;SDS011;68639;52.380;9.822;2023-06-19T04:51:51;9.88;;;5.00;;
79212;SDS011;68639;52.380;9.822;2023-06-19T04:54:16;9.32;;;5.20;;
79212;SDS011;68639;52.380;9.822;2023-06-19T04:56:41;7.93;;;4.55;;
79212;SDS011;68639;52.380;9.822;2023-06-19T04:59:06;7.15;;;4.90;;
79212;SDS011;68639;52.380;9.822;2023-06-19T05:01:31;8.70;;;4.85;;
79212;SDS011;68639;52.380;9.822;2023-06-19T05:03:57;8.80;;;4.88;;
79212;SDS011;68639;52.380;9.822;2023-06-19T05:06:24;10.07;;;4.93;;
79212;SDS011;68639;52.380;9.822;2023-06-19T05:08:49;7.97;;;5.38;;
79212;SDS011;68639;52.380;9.822;2023-06-19T05:11:14;10.02;;;5.30;;
79212;SDS011;68639;52.380;9.822;2023-06-19T05:13:39;12.27;;;5.00;;
79212;SDS011;68639;52.380;9.822;2023-06-19T05:16:05;8.40;;;5.20;;
79212;SDS011;68639;52.380;9.822;2023-06-19T05:18:30;8.45;;;6.10;;
79212;SDS011;68639;52.380;9.822;2023-06-19T05:20:55;10.52;;;5.70;;
79212;SDS011;68639;52.380;9.822;2023-06-19T05:23:20;9.65;;;6.32;;
79212;SDS011;68639;52.380;9.822;2023-06-19T05:25:45;10.13;;;5.38;;
79212;SDS011;68639;52.380;9.822;2023-06-19T05:28:11;10.77;;;5.82;;
79212;SDS011;68639;52.380;9.822;2023-06-19T05:30:36;10.25;;;5.93;;
79212;SDS011;68639;52.380;9.822;2023-06-19T05:33:01;12.70;;;6.30;;
79212;SDS011;68639;52.380;9.822;2023-06-19T05:35:26;13.27;;;6.07;;
79212;SDS011;68639;52.380;9.822;2023-06-19T05:37:52;9.32;;;6.07;;
79212;SDS011;68639;52.380;9.822;2023-06-19T05:40:17;12.70;;;6.43;;
79212;SDS011;68639;52.380;9.822;2023-06-19T05:42:42;17.17;;;6.07;;
79212;SDS011;68639;52.380;9.822;2023-06-19T05:45:08;13.48;;;6.53;;
79212;SDS011;68639;52.380;9.822;2023-06-19T05:47:33;12.07;;;5.78;;
79212;SDS011;68639;52.380;9.822;2023-06-19T05:49:58;13.27;;;5.80;;
79212;SDS011;68639;52.380;9.822;2023-06-19T05:52:24;11.45;;;6.28;;
79212;SDS011;68639;52.380;9.822;2023-06-19T05:54:50;12.70;;;6.18;;
79212;SDS011;68639;52.380;9.822;2023-06-19T05:57:15;14.65;;;6.18;;
79212;SDS011;68639;52.380;9.822;2023-06-19T05:59:41;11.23;;;6.47;;
79212;SDS011;68639;52.380;9.822;2023-06-19T06:02:06;10.80;;;5.90;;
79212;SDS011;68639;52.380;9.822;2023-06-19T06:04:32;9.30;;;5.70;;
79212;SDS011;68639;52.380;9.822;2023-06-19T06:06:57;13.80;;;6.05;;
79212;SDS011;68639;52.380;9.822;2023-06-19T06:09:23;14.10;;;7.20;;
79212;SDS011;68639;52.380;9.822;2023-06-19T06:11:48;9.15;;;6.25;;
79212;SDS011;68639;52.380;9.822;2023-06-19T06:14:13;8.50;;;6.30;;
79212;SDS011;68639;52.380;9.822;2023-06-19T06:16:38;9.48;;;5.78;;
79212;SDS011;68639;52.380;9.822;2023-06-19T06:19:04;12.48;;;6.00;;
79212;SDS011;68639;52.380;9.822;2023-06-19T06:21:29;8.15;;;5.97;;
79212;SDS011;68639;52.380;9.822;2023-06-19T06:23:54;11.38;;;5.43;;
79212;SDS011;68639;52.380;9.822;2023-06-19T06:26:20;12.48;;;6.50;;
79212;SDS011;68639;52.380;9.822;2023-06-19T06:28:45;8.45;;;5.75;;
79212;SDS011;68639;52.380;9.822;2023-06-19T06:31:10;7.35;;;5.30;;
79212;SDS011;68639;52.380;9.822;2023-06-19T06:33:35;9.43;;;5.03;;
79212;SDS011;68639;52.380;9.822;2023-06-19T06:36:00;9.30;;;5.65;;
79212;SDS011;68639;52.380;9.822;2023-06-19T06:38:26;7.78;;;5.72;;
79212;SDS011;68639;52.380;9.822;2023-06-19T06:40:51;10.55;;;5.72;;
79212;SDS011;68639;52.380;9.822;2023-06-19T06:43:17;7.32;;;6.13;;
79212;SDS011;68639;52.380;9.822;2023-06-19T06:45:42;11.02;;;5.70;;
79212;SDS011;68639;52.380;9.822;2023-06-19T06:48:07;9.10;;;5.38;;
79212;SDS011;68639;52.380;9.822;2023-06-19T06:50:33;9.57;;;5.60;;
79212;SDS011;68639;52.380;9.822;2023-06-19T06:52:58;6.97;;;5.72;;
79212;SDS011;68639;52.380;9.822;2023-06-19T06:55:23;9.48;;;5.90;;
79212;SDS011;68639;52.380;9.822;2023-06-19T06:57:48;7.90;;;5.07;;
79212;SDS011;68639;52.380;9.822;2023-06-19T07:00:13;6.80;;;5.43;;
79212;SDS011;68639;52.380;9.822;2023-06-19T07:02:39;6.80;;;5.53;;
79212;SDS011;68639;52.380;9.822;2023-06-19T07:05:08;7.82;;;5.93;;
79212;SDS011;68639;52.380;9.822;2023-06-19T07:07:33;7.38;;;5.10;;
79212;SDS011;68639;52.380;9.822;2023-06-19T07:09:58;8.98;;;5.40;;
79212;SDS011;68639;52.380;9.822;2023-06-19T07:12:24;9.30;;;5.70;;
79212;SDS011;68639;52.380;9.822;2023-06-19T07:14:49;8.68;;;5.97;;
79212;SDS011;68639;52.380;9.822;2023-06-19T07:17:18;7.40;;;5.00;;
79212;SDS011;68639;52.380;9.822;2023-06-19T07:19:43;11.67;;;5.80;;
79212;SDS011;68639;52.380;9.822;2023-06-19T07:22:08;7.83;;;5.43;;
79212;SDS011;68639;52.380;9.822;2023-06-19T07:24:33;11.35;;;6.07;;
79212;SDS011;68639;52.380;9.822;2023-06-19T07:26:58;8.77;;;5.80;;
79212;SDS011;68639;52.380;9.822;2023-06-19T07:29:24;8.60;;;5.45;;
79212;SDS011;68639;52.380;9.822;2023-06-19T07:31:50;7.90;;;5.30;;
79212;SDS011;68639;52.380;9.822;2023-06-19T07:34:15;8.43;;;5.80;;
79212;SDS011;68639;52.380;9.822;2023-06-19T07:36:40;9.73;;;5.70;;
79212;SDS011;68639;52.380;9.822;2023-06-19T07:39:07;9.88;;;5.47;;
79212;SDS011;68639;52.380;9.822;2023-06-19T07:41:32;10.80;;;5.63;;
79212;SDS011;68639;52.380;9.822;2023-06-19T07:43:57;10.32;;;5.75;;
79212;SDS011;68639;52.380;9.822;2023-06-19T07:46:22;12.83;;;5.57;;
79212;SDS011;68639;52.380;9.822;2023-06-19T07:48:48;8.43;;;5.60;;
79212;SDS011;68639;52.380;9.822;2023-06-19T07:51:13;12.07;;;5.85;;
79212;SDS011;68639;52.380;9.822;2023-06-19T07:53:38;10.40;;;6.22;;
79212;SDS011;68639;52.380;9.822;2023-06-19T07:56:04;14.07;;;5.68;;
79212;SDS011;68639;52.380;9.822;2023-06-19T07:58:29;10.87;;;5.70;;
79212;SDS011;68639;52.380;9.822;2023-06-19T08:00:55;6.82;;;5.30;;
79212;SDS011;68639;52.380;9.822;2023-06-19T08:03:20;10.93;;;5.30;;
79212;SDS011;68639;52.380;9.822;2023-06-19T08:05:46;9.23;;;5.65;;
79212;SDS011;68639;52.380;9.822;2023-06-19T08:08:12;8.77;;;5.70;;
79212;SDS011;68639;52.380;9.822;2023-06-19T08:10:37;9.80;;;5.72;;
79212;SDS011;68639;52.380;9.822;2023-06-19T08:13:02;6.72;;;5.45;;
79212;SDS011;68639;52.380;9.822;2023-06-19T08:15:27;9.80;;;5.80;;
79212;SDS011;68639;52.380;9.822;2023-06-19T08:17:53;9.67;;;5.93;;
79212;SDS011;68639;52.380;9.822;2023-06-19T08:20:18;10.27;;;5.63;;
79212;SDS011;68639;52.380;9.822;2023-06-19T08:22:44;15.77;;;5.50;;
79212;SDS011;68639;52.380;9.822;2023-06-19T08:25:10;7.03;;;5.27;;
79212;SDS011;68639;52.380;9.822;2023-06-19T08:27:35;10.07;;;5.68;;
79212;SDS011;68639;52.380;9.822;2023-06-19T08:30:00;7.87;;;5.70;;
79212;SDS011;68639;52.380;9.822;2023-06-19T08:32:25;8.05;;;5.38;;
79212;SDS011;68639;52.380;9.822;2023-06-19T08:34:51;11.60;;;5.88;;
79212;SDS011;68639;52.380;9.822;2023-06-19T08:37:17;7.93;;;5.70;;
79212;SDS011;68639;52.380;9.822;2023-06-19T08:39:43;7.45;;;5.65;;
79212;SDS011;68639;52.380;9.822;2023-06-19T08:42:09;7.35;;;5.00;;
79212;SDS011;68639;52.380;9.822;2023-06-19T08:44:34;10.52;;;4.97;;
79212;SDS011;68639;52.380;9.822;2023-06-19T08:47:01;22.33;;;5.47;;
79212;SDS011;68639;52.380;9.822;2023-06-19T08:49:29;9.60;;;4.93;;
79212;SDS011;68639;52.380;9.822;2023-06-19T08:51:54;6.40;;;4.55;;
79212;SDS011;68639;52.380;9.822;2023-06-19T08:54:19;5.23;;;4.27;;
79212;SDS011;68639;52.380;9.822;2023-06-19T08:56:44;14.10;;;4.63;;
79212;SDS011;68639;52.380;9.822;2023-06-19T08:59:15;5.55;;;4.80;;
79212;SDS011;68639;52.380;9.822;2023-06-19T09:01:46;9.98;;;4.40;;
79212;SDS011;68639;52.380;9.822;2023-06-19T09:04:16;7.32;;;4.47;;
79212;SDS011;68639;52.380;9.822;2023-06-19T09:07:01;5.68;;;4.40;;
79212;SDS011;68639;52.380;9.822;2023-06-19T09:09:27;7.20;;;4.78;;
79212;SDS011;68639;52.380;9.822;2023-06-19T09:12:12;6.63;;;5.00;;
79212;SDS011;68639;52.380;9.822;2023-06-19T09:14:38;9.60;;;5.03;;
79212;SDS011;68639;52.380;9.822;2023-06-19T09:17:04;7.93;;;4.40;;
79212;SDS011;68639;52.380;9.822;2023-06-19T09:19:30;7.95;;;4.82;;
79212;SDS011;68639;52.380;9.822;2023-06-19T09:21:59;7.22;;;4.78;;
79212;SDS011;68639;52.380;9.822;2023-06-19T09:24:32;7.60;;;4.88;;
79212;SDS011;68639;52.380;9.822;2023-06-19T09:27:05;7.35;;;5.22;;
79212;SDS011;68639;52.380;9.822;2023-06-19T09:29:30;7.68;;;5.10;;
79212;SDS011;68639;52.380;9.822;2023-06-19T09:31:55;8.35;;;5.20;;
79212;SDS011;68639;52.380;9.822;2023-06-19T09:34:21;9.40;;;4.90;;
79212;SDS011;68639;52.380;9.822;2023-06-19T09:36:46;9.90;;;5.55;;
79212;SDS011;68639;52.380;9.822;2023-06-19T09:39:12;11.63;;;5.03;;
79212;SDS011;68639;52.380;9.822;2023-06-19T09:41:38;8.13;;;5.00;;
79212;SDS011;68639;52.380;9.822;2023-06-19T09:44:04;8.88;;;4.72;;
79212;SDS011;68639;52.380;9.822;2023-06-19T09:46:37;7.95;;;4.70;;
79212;SDS011;68639;52.380;9.822;2023-06-19T09:49:02;11.00;;;4.93;;
79212;SDS011;68639;52.380;9.822;2023-06-19T09:51:38;11.63;;;4.85;;
79212;SDS011;68639;52.380;9.822;2023-06-19T09:54:05;6.10;;;4.50;;
79212;SDS011;68639;52.380;9.822;2023-06-19T09:56:31;9.30;;;4.60;;
79212;SDS011;68639;52.380;9.822;2023-06-19T09:58:57;7.80;;;4.88;;
79212;SDS011;68639;52.380;9.822;2023-06-19T10:01:25;11.13;;;4.70;;
79212;SDS011;68639;52.380;9.822;2023-06-19T10:04:00;6.18;;;4.68;;
79212;SDS011;68639;52.380;9.822;2023-06-19T10:06:25;6.85;;;4.50;;
79212;SDS011;68639;52.380;9.822;2023-06-19T10:08:51;9.47;;;4.73;;
79212;SDS011;68639;52.380;9.822;2023-06-19T10:11:16;6.47;;;4.60;;
79212;SDS011;68639;52.380;9.822;2023-06-19T10:13:41;6.47;;;4.45;;
79212;SDS011;68639;52.380;9.822;2023-06-19T10:16:07;5.78;;;4.00;;
79212;SDS011;68639;52.380;9.822;2023-06-19T10:18:33;5.70;;;4.00;;
79212;SDS011;68639;52.380;9.822;2023-06-19T10:21:15;6.03;;;4.05;;
79212;SDS011;68639;52.380;9.822;2023-06-19T10:23:40;8.15;;;4.43;;
79212;SDS011;68639;52.380;9.822;2023-06-19T10:26:05;12.23;;;4.30;;
79212;SDS011;68639;52.380;9.822;2023-06-19T10:28:32;9.05;;;4.10;;
79212;SDS011;68639;52.380;9.822;2023-06-19T10:31:02;7.10;;;3.95;;
79212;SDS011;68639;52.380;9.822;2023-06-19T10:33:32;8.35;;;3.88;;
79212;SDS011;68639;52.380;9.822;2023-06-19T10:35:58;5.65;;;3.75;;
79212;SDS011;68639;52.380;9.822;2023-06-19T10:38:24;8.40;;;4.03;;
79212;SDS011;68639;52.380;9.822;2023-06-19T10:40:50;6.45;;;3.78;;
79212;SDS011;68639;52.380;9.822;2023-06-19T10:43:22;8.27;;;3.53;;
79212;SDS011;68639;52.380;9.822;2023-06-19T10:45:49;6.20;;;3.35;;
79212;SDS011;68639;52.380;9.822;2023-06-19T10:48:19;5.18;;;3.40;;
79212;SDS011;68639;52.380;9.822;2023-06-19T10:50:44;7.65;;;3.30;;
79212;SDS011;68639;52.380;9.822;2023-06-19T10:53:10;5.73;;;3.60;;
79212;SDS011;68639;52.380;9.822;2023-06-19T10:55:35;8.77;;;3.60;;
79212;SDS011;68639;52.380;9.822;2023-06-19T10:58:00;7.80;;;3.30;;
79212;SDS011;68639;52.380;9.822;2023-06-19T11:00:26;5.07;;;3.45;;
79212;SDS011;68639;52.380;9.822;2023-06-19T11:02:51;5.18;;;3.53;;
79212;SDS011;68639;52.380;9.822;2023-06-19T11:05:19;5.43;;;3.60;;
79212;SDS011;68639;52.380;9.822;2023-06-19T11:07:50;8.40;;;3.80;;
79212;SDS011;68639;52.380;9.822;2023-06-19T11:10:19;6.90;;;3.10;;
79212;SDS011;68639;52.380;9.822;2023-06-19T11:12:44;9.38;;;3.50;;
79212;SDS011;68639;52.380;9.822;2023-06-19T11:15:12;3.97;;;3.00;;
79212;SDS011;68639;52.380;9.822;2023-06-19T11:17:38;6.03;;;3.47;;
79212;SDS011;68639;52.380;9.822;2023-06-19T11:20:03;13.95;;;3.53;;
79212;SDS011;68639;52.380;9.822;2023-06-19T11:22:37;9.88;;;3.28;;
79212;SDS011;68639;52.380;9.822;2023-06-19T11:25:03;7.63;;;3.22;;
79212;SDS011;68639;52.380;9.822;2023-06-19T11:27:30;4.85;;;2.95;;
79212;SDS011;68639;52.380;9.822;2023-06-19T11:29:56;8.52;;;2.85;;
79212;SDS011;68639;52.380;9.822;2023-06-19T11:32:23;5.32;;;2.70;;
79212;SDS011;68639;52.380;9.822;2023-06-19T11:34:49;6.40;;;2.95;;
79212;SDS011;68639;52.380;9.822;2023-06-19T11:37:16;6.22;;;2.60;;
79212;SDS011;68639;52.380;9.822;2023-06-19T11:39:43;5.20;;;2.55;;
79212;SDS011;68639;52.380;9.822;2023-06-19T11:42:08;5.07;;;2.38;;
79212;SDS011;68639;52.380;9.822;2023-06-19T11:44:34;9.43;;;2.70;;
79212;SDS011;68639;52.380;9.822;2023-06-19T11:46:59;6.50;;;2.37;;
79212;SDS011;68639;52.380;9.822;2023-06-19T11:49:25;5.80;;;2.40;;
79212;SDS011;68639;52.380;9.822;2023-06-19T11:51:50;3.93;;;2.60;;
79212;SDS011;68639;52.380;9.822;2023-06-19T11:54:15;3.10;;;2.08;;
79212;SDS011;68639;52.380;9.822;2023-06-19T11:56:40;6.60;;;1.92;;
79212;SDS011;68639;52.380;9.822;2023-06-19T11:59:06;3.35;;;1.90;;
79212;SDS011;68639;52.380;9.822;2023-06-19T12:01:31;5.05;;;1.88;;
79212;SDS011;68639;52.380;9.822;2023-06-19T12:03:57;6.30;;;2.10;;
79212;SDS011;68639;52.380;9.822;2023-06-19T12:06:22;8.48;;;1.95;;
79212;SDS011;68639;52.380;9.822;2023-06-19T12:08:48;4.50;;;1.70;;
79212;SDS011;68639;52.380;9.822;2023-06-19T12:11:13;4.95;;;1.95;;
79212;SDS011;68639;52.380;9.822;2023-06-19T12:13:40;5.47;;;1.80;;
79212;SDS011;68639;52.380;9.822;2023-06-19T12:16:05;4.65;;;2.05;;
79212;SDS011;68639;52.380;9.822;2023-06-19T12:18:30;3.97;;;1.87;;
79212;SDS011;68639;52.380;9.822;2023-06-19T12:20:55;4.57;;;2.17;;
79212;SDS011;68639;52.380;9.822;2023-06-19T12:23:20;5.70;;;2.10;;
79212;SDS011;68639;52.380;9.822;2023-06-19T12:25:46;7.45;;;2.40;;
79212;SDS011;68639;52.380;9.822;2023-06-19T12:28:11;5.63;;;2.57;;
79212;SDS011;68639;52.380;9.822;2023-06-19T12:30:41;3.45;;;1.92;;
79212;SDS011;68639;52.380;9.822;2023-06-19T12:33:06;8.47;;;2.30;;
79212;SDS011;68639;52.380;9.822;2023-06-19T12:35:31;4.53;;;2.00;;
79212;SDS011;68639;52.380;9.822;2023-06-19T12:37:57;6.40;;;2.50;;
79212;SDS011;68639;52.380;9.822;2023-06-19T12:40:22;6.05;;;2.42;;
79212;SDS011;68639;52.380;9.822;2023-06-19T12:42:48;4.57;;;2.50;;
79212;SDS011;68639;52.380;9.822;2023-06-19T12:45:15;6.03;;;2.50;;
79212;SDS011;68639;52.380;9.822;2023-06-19T12:47:40;14.80;;;2.40;;
79212;SDS011;68639;52.380;9.822;2023-06-19T12:50:06;5.00;;;2.30;;
79212;SDS011;68639;52.380;9.822;2023-06-19T12:52:31;7.13;;;2.65;;
79212;SDS011;68639;52.380;9.822;2023-06-19T12:54:56;5.37;;;2.50;;
79212;SDS011;68639;52.380;9.822;2023-06-19T12:57:24;6.60;;;2.22;;
79212;SDS011;68639;52.380;9.822;2023-06-19T12:59:49;42.20;;;3.97;;
79212;SDS011;68639;52.380;9.822;2023-06-19T13:02:15;101.45;;;7.75;;
79212;SDS011;68639;52.380;9.822;2023-06-19T13:04:40;28.83;;;3.37;;
79212;SDS011;68639;52.380;9.822;2023-06-19T13:07:05;115.22;;;7.00;;
79212;SDS011;68639;52.380;9.822;2023-06-19T13:09:30;54.93;;;4.20;;
79212;SDS011;68639;52.380;9.822;2023-06-19T13:11:55;26.70;;;3.93;;
79212;SDS011;68639;52.380;9.822;2023-06-19T13:14:21;19.37;;;3.87;;
79212;SDS011;68639;52.380;9.822;2023-06-19T13:16:46;32.15;;;4.05;;
79212;SDS011;68639;52.380;9.822;2023-06-19T13:19:11;34.00;;;3.88;;
79212;SDS011;68639;52.380;9.822;2023-06-19T13:21:36;6.37;;;2.67;;
79212;SDS011;68639;52.380;9.822;2023-06-19T13:24:02;3.63;;;2.73;;
79212;SDS011;68639;52.380;9.822;2023-06-19T13:26:27;4.75;;;2.50;;
79212;SDS011;68639;52.380;9.822;2023-06-19T13:28:52;3.20;;;2.77;;
79212;SDS011;68639;52.380;9.822;2023-06-19T13:31:17;5.60;;;2.90;;
79212;SDS011;68639;52.380;9.822;2023-06-19T13:33:43;5.83;;;2.50;;
79212;SDS011;68639;52.380;9.822;2023-06-19T13:36:08;5.73;;;3.17;;
79212;SDS011;68639;52.380;9.822;2023-06-19T13:38:33;6.30;;;2.60;;
79212;SDS011;68639;52.380;9.822;2023-06-19T13:40:58;11.17;;;2.70;;
79212;SDS011;68639;52.380;9.822;2023-06-19T13:43:23;6.50;;;2.90;;
79212;SDS011;68639;52.380;9.822;2023-06-19T13:45:49;6.18;;;2.60;;
79212;SDS011;68639;52.380;9.822;2023-06-19T13:48:14;4.03;;;2.47;;
79212;SDS011;68639;52.380;9.822;2023-06-19T13:50:39;5.45;;;2.42;;
79212;SDS011;68639;52.380;9.822;2023-06-19T13:53:04;5.50;;;2.60;;
79212;SDS011;68639;52.380;9.822;2023-06-19T13:55:30;6.63;;;2.60;;
79212;SDS011;68639;52.380;9.822;2023-06-19T13:57:55;5.13;;;2.47;;
79212;SDS011;68639;52.380;9.822;2023-06-19T14:00:20;4.07;;;2.58;;
79212;SDS011;68639;52.380;9.822;2023-06-19T14:02:46;3.70;;;2.58;;
79212;SDS011;68639;52.380;9.822;2023-06-19T14:05:11;4.70;;;2.60;;
79212;SDS011;68639;52.380;9.822;2023-06-19T14:07:40;4.47;;;2.60;;
79212;SDS011;68639;52.380;9.822;2023-06-19T14:10:05;11.77;;;2.95;;
79212;SDS011;68639;52.380;9.822;2023-06-19T14:12:30;7.55;;;2.50;;
79212;SDS011;68639;52.380;9.822;2023-06-19T14:14:56;3.22;;;2.50;;
79212;SDS011;68639;52.380;9.822;2023-06-19T14:17:21;2.88;;;2.13;;
79212;SDS011;68639;52.380;9.822;2023-06-19T14:19:47;5.60;;;2.30;;
79212;SDS011;68639;52.380;9.822;2023-06-19T14:22:12;13.43;;;2.50;;
79212;SDS011;68639;52.380;9.822;2023-06-19T14:24:37;4.00;;;2.33;;
79212;SDS011;68639;52.380;9.822;2023-06-19T14:27:02;3.38;;;2.03;;
79212;SDS011;68639;52.380;9.822;2023-06-19T14:29:28;4.55;;;2.10;;
79212;SDS011;68639;52.380;9.822;2023-06-19T14:31:53;3.58;;;2.17;;
79212;SDS011;68639;52.380;9.822;2023-06-19T14:34:19;27.17;;;2.58;;
79212;SDS011;68639;52.380;9.822;2023-06-19T14:36:44;4.43;;;2.20;;
79212;SDS011;68639;52.380;9.822;2023-06-19T14:39:09;3.97;;;2.13;;
79212;SDS011;68639;52.380;9.822;2023-06-19T14:41:36;4.68;;;2.17;;